createdAt,value
2022-11-13T00:02:10.937Z,48.17
2022-11-13T00:05:16.015Z,48.28
2022-11-13T00:08:20.507Z,48.80
2022-11-13T00:11:25.536Z,48.71
2022-11-13T00:14:30.381Z,48.44
2022-11-13T00:17:35.330Z,48.58
2022-11-13T00:20:40.023Z,48.49
2022-11-13T00:23:45.073Z,48.66
2022-11-13T00:26:49.307Z,48.45
2022-11-13T00:29:53.894Z,48.40
2022-11-13T00:32:58.721Z,48.06
2022-11-13T00:36:05.145Z,48.30
2022-11-13T00:39:10.005Z,48.57
2022-11-13T00:42:14.368Z,48.86
2022-11-13T00:45:18.997Z,48.92
2022-11-13T00:48:23.673Z,48.63
2022-11-13T00:51:28.051Z,48.46
2022-11-13T00:54:32.716Z,48.55
2022-11-13T00:57:37.334Z,48.48
2022-11-13T01:00:43.773Z,48.56
2022-11-13T01:03:48.201Z,48.90
2022-11-13T01:06:53.002Z,48.93
2022-11-13T01:09:57.523Z,48.88
2022-11-13T01:13:01.986Z,49.17
2022-11-13T01:16:09.256Z,48.70
2022-11-13T01:19:13.506Z,48.71
2022-11-13T01:22:18.238Z,48.73
2022-11-13T01:25:22.536Z,48.79
2022-11-13T01:28:27.707Z,49.23
2022-11-13T01:31:32.410Z,48.66
2022-11-13T01:34:37.080Z,48.94
2022-11-13T01:37:44.631Z,49.24
2022-11-13T01:40:49.249Z,48.91
2022-11-13T01:43:54.860Z,48.81
2022-11-13T01:46:59.697Z,49.03
2022-11-13T01:50:04.466Z,49.36
2022-11-13T01:53:08.977Z,49.20
2022-11-13T01:56:14.326Z,49.16
2022-11-13T01:59:20.963Z,49.53
2022-11-13T02:02:26.064Z,48.72
2022-11-13T02:05:30.800Z,49.02
2022-11-13T02:08:35.388Z,49.06
2022-11-13T02:11:40.085Z,49.08
2022-11-13T02:14:47.895Z,49.04
2022-11-13T02:17:57.651Z,49.53
2022-11-13T02:21:27.458Z,49.43
2022-11-13T02:24:37.703Z,49.58
2022-11-13T02:27:45.285Z,49.07
2022-11-13T02:30:49.639Z,49.03
2022-11-13T02:33:54.234Z,49.28
2022-11-13T02:36:58.669Z,49.12
2022-11-13T02:40:03.739Z,49.69
2022-11-13T02:43:08.501Z,49.60
2022-11-13T02:46:13.092Z,49.45
2022-11-13T02:49:17.536Z,49.82
2022-11-13T02:52:22.602Z,49.03
2022-11-13T02:55:27.532Z,49.63
2022-11-13T02:58:32.261Z,49.42
2022-11-13T03:01:36.722Z,49.39
2022-11-13T03:05:10.388Z,49.73
2022-11-13T03:08:06.604Z,50.26
2022-11-13T03:11:11.424Z,49.81
2022-11-13T03:14:15.889Z,49.34
2022-11-13T03:17:20.571Z,49.46
2022-11-13T03:20:24.901Z,49.62
2022-11-13T03:23:30.622Z,49.63
2022-11-13T03:26:34.934Z,49.57
2022-11-13T03:29:39.854Z,49.79
2022-11-13T03:32:44.647Z,49.52
2022-11-13T03:35:49.605Z,49.52
2022-11-13T03:38:54.610Z,49.89
2022-11-13T03:41:58.899Z,49.86
2022-11-13T03:45:02.987Z,50.72
2022-11-13T03:48:07.759Z,49.87
2022-11-13T03:51:12.157Z,49.54
2022-11-13T03:54:16.626Z,50.14
2022-11-13T03:57:21.111Z,49.98
2022-11-13T04:00:25.886Z,49.85
2022-11-13T04:03:30.673Z,50.41
2022-11-13T04:06:35.390Z,50.00
2022-11-13T04:09:40.214Z,50.37
2022-11-13T04:12:44.886Z,49.82
2022-11-13T04:15:49.662Z,50.03
2022-11-13T04:18:54.664Z,50.35
2022-11-13T04:21:59.520Z,49.85
2022-11-13T04:25:05.240Z,50.15
2022-11-13T05:21:30.272Z,50.50
2022-11-13T05:26:01.296Z,50.67
2022-11-13T05:30:30.266Z,50.36
2022-11-13T05:35:01.250Z,51.18
2022-11-13T05:39:31.260Z,50.70
2022-11-13T05:43:41.407Z,50.71
2022-11-13T05:48:12.278Z,51.08
2022-11-13T05:52:43.276Z,50.51
2022-11-13T05:57:14.297Z,51.03
2022-11-13T06:01:45.347Z,50.82
2022-11-13T06:06:16.489Z,50.90
2022-11-13T06:10:47.313Z,50.94
2022-11-13T06:15:18.296Z,50.69
2022-11-13T06:24:26.334Z,50.67
2022-11-13T06:28:55.301Z,51.16
2022-11-13T06:33:25.251Z,50.64
2022-11-13T06:37:56.211Z,51.52
2022-11-13T06:42:26.305Z,51.12
2022-11-13T06:46:56.279Z,51.51
2022-11-13T06:51:28.189Z,50.67
2022-11-13T06:55:57.356Z,51.18
2022-11-13T07:00:32.268Z,51.08
2022-11-13T07:04:59.202Z,51.10
2022-11-13T07:09:29.126Z,51.45
2022-11-13T07:12:43.880Z,51.07
2022-11-13T07:26:47.183Z,51.00
2022-11-13T07:31:28.321Z,51.67
2022-11-13T07:35:13.781Z,51.55
2022-11-13T07:39:44.345Z,51.04
2022-11-13T07:42:59.042Z,51.55
2022-11-13T07:46:37.365Z,51.20
2022-11-13T07:49:42.501Z,51.07
2022-11-13T07:52:47.040Z,50.74
2022-11-13T07:57:16.327Z,51.67
2022-11-13T08:01:47.360Z,51.71
2022-11-13T08:06:18.394Z,51.60
2022-11-13T08:10:48.358Z,51.20
2022-11-13T08:15:19.411Z,51.84
2022-11-13T08:19:50.404Z,51.99
2022-11-13T08:29:10.812Z,51.26
2022-11-13T08:33:41.651Z,51.61
2022-11-13T08:38:11.384Z,51.88
2022-11-13T08:42:42.411Z,51.47
2022-11-13T08:47:13.388Z,51.75
2022-11-13T08:51:44.422Z,51.30
2022-11-13T08:56:15.407Z,51.84
2022-11-13T09:00:33.752Z,51.79
2022-11-13T09:03:38.411Z,51.23
2022-11-13T09:06:42.923Z,51.43
2022-11-13T09:11:13.324Z,51.71
2022-11-13T09:14:18.011Z,51.08
2022-11-13T09:17:22.426Z,51.22
2022-11-13T09:21:51.452Z,51.68
2022-11-13T09:30:59.475Z,51.38
2022-11-13T09:35:28.393Z,51.28
2022-11-13T09:39:59.437Z,51.02
2022-11-13T09:52:55.677Z,50.66
2022-11-13T10:00:44.454Z,50.39
2022-11-13T10:04:49.079Z,50.30
2022-11-13T10:09:03.167Z,50.57
2022-11-13T10:32:14.514Z,49.31
2022-11-13T10:35:57.860Z,49.35
2022-11-13T10:39:23.142Z,49.34
2022-11-13T10:43:58.663Z,48.67
2022-11-13T10:48:03.271Z,48.65
2022-11-13T10:51:46.984Z,48.44
2022-11-13T10:56:16.502Z,47.93
2022-11-13T11:00:47.883Z,47.65
2022-11-13T11:05:18.554Z,47.42
2022-11-13T11:09:05.084Z,47.09
2022-11-13T11:13:25.598Z,47.33
2022-11-13T11:16:31.246Z,48.04
2022-11-13T11:19:37.847Z,47.54
2022-11-13T11:32:41.638Z,46.96
2022-11-13T11:36:50.539Z,45.48
2022-11-13T11:40:00.751Z,43.70
2022-11-13T11:43:18.871Z,39.78
2022-11-13T11:46:25.293Z,42.74
2022-11-13T11:49:30.164Z,42.99
2022-11-13T11:52:54.792Z,36.33
2022-11-13T11:56:20.757Z,40.31
2022-11-13T11:59:51.693Z,39.70
2022-11-13T12:03:25.947Z,37.76
2022-11-13T12:06:57.650Z,41.87
2022-11-13T12:10:17.459Z,37.88
2022-11-13T12:13:29.315Z,41.38
2022-11-13T12:16:50.322Z,36.71
2022-11-13T12:20:17.881Z,38.46
2022-11-13T12:23:35.117Z,40.86
2022-11-13T12:26:59.128Z,38.52
2022-11-13T12:30:28.293Z,38.98
2022-11-13T12:34:00.884Z,36.08
2022-11-13T12:37:11.730Z,39.92
2022-11-13T12:40:44.655Z,38.60
2022-11-13T12:44:10.885Z,38.08
2022-11-13T12:47:15.826Z,39.61
2022-11-13T12:50:32.533Z,38.62
2022-11-13T12:53:49.474Z,37.86
2022-11-13T12:56:54.006Z,39.61
2022-11-13T13:00:02.280Z,39.51
2022-11-13T13:03:27.709Z,37.13
2022-11-13T13:06:54.055Z,38.58
2022-11-13T13:10:23.476Z,37.22
2022-11-13T13:13:38.157Z,38.31
2022-11-13T13:16:42.608Z,38.82
2022-11-13T13:19:57.880Z,37.33
2022-11-13T13:23:07.254Z,38.62
2022-11-13T13:26:22.584Z,37.37
2022-11-13T13:29:30.230Z,38.71
2022-11-13T13:32:55.483Z,37.45
2022-11-13T13:36:12.459Z,37.57
2022-11-13T13:39:46.761Z,39.01
2022-11-13T13:43:22.877Z,37.87
2022-11-13T13:46:31.402Z,38.38
2022-11-13T13:49:36.660Z,38.92
2022-11-13T13:52:41.019Z,38.97
2022-11-13T13:56:05.316Z,38.01
2022-11-13T13:59:18.463Z,38.49
2022-11-13T14:02:24.214Z,39.21
2022-11-13T14:05:31.680Z,39.35
2022-11-13T14:08:36.098Z,39.67
2022-11-13T14:11:40.284Z,39.88
2022-11-13T14:14:44.973Z,40.37
2022-11-13T14:17:49.590Z,40.84
2022-11-13T14:20:56.847Z,41.03
2022-11-13T14:24:03.628Z,40.97
2022-11-13T14:27:13.146Z,41.48
2022-11-13T14:30:30.466Z,41.80
2022-11-13T14:33:41.262Z,41.78
2022-11-13T14:36:46.001Z,41.95
2022-11-13T14:39:51.318Z,42.21
2022-11-13T14:42:58.972Z,42.36
2022-11-13T14:46:05.795Z,42.11
2022-11-13T14:49:17.080Z,42.55
2022-11-13T14:52:27.840Z,42.93
2022-11-13T14:55:37.095Z,42.70
2022-11-13T14:58:47.025Z,43.19
2022-11-13T15:01:55.673Z,44.20
2022-11-13T15:05:00.372Z,43.65
2022-11-13T15:08:05.425Z,43.48
2022-11-13T15:11:14.072Z,44.12
2022-11-13T15:14:20.326Z,44.16
2022-11-13T15:17:25.279Z,44.05
2022-11-13T15:20:31.204Z,44.30
2022-11-13T15:23:39.225Z,44.46
2022-11-13T15:26:44.181Z,44.32
2022-11-13T15:29:51.274Z,44.87
2022-11-13T15:32:57.250Z,44.91
2022-11-13T15:36:01.847Z,44.83
2022-11-13T15:39:09.385Z,45.01
2022-11-13T15:42:18.477Z,44.79
2022-11-13T15:45:23.033Z,44.84
2022-11-13T15:48:27.807Z,45.26
2022-11-13T15:51:42.162Z,45.42
2022-11-13T15:54:46.934Z,45.08
2022-11-13T15:57:51.291Z,45.51
2022-11-13T16:00:55.574Z,45.53
2022-11-13T16:04:02.505Z,45.80
2022-11-13T16:07:14.386Z,46.12
2022-11-13T16:10:19.877Z,46.04
2022-11-13T16:13:24.595Z,46.04
2022-11-13T16:16:33.954Z,45.84
2022-11-13T16:19:39.230Z,46.17
2022-11-13T16:22:44.519Z,46.16
2022-11-13T16:25:49.482Z,46.46
2022-11-13T16:32:19.459Z,46.68
2022-11-13T16:35:24.031Z,46.46
2022-11-13T16:38:28.623Z,46.77
2022-11-13T16:41:33.543Z,46.54
2022-11-13T16:44:38.722Z,46.93
2022-11-13T16:47:43.507Z,46.88
2022-11-13T16:50:48.453Z,47.02
2022-11-13T16:53:54.185Z,46.99
2022-11-13T16:56:58.922Z,46.92
2022-11-13T17:00:06.302Z,47.39
2022-11-13T17:03:11.071Z,47.44
2022-11-13T17:06:19.898Z,47.88
2022-11-13T17:09:24.813Z,47.69
2022-11-13T17:12:29.005Z,47.90
2022-11-13T17:15:33.820Z,47.95
2022-11-13T17:18:38.240Z,47.79
2022-11-13T17:21:44.449Z,47.81
2022-11-13T17:24:50.421Z,47.90
2022-11-13T17:27:54.695Z,48.09
2022-11-13T17:31:31.125Z,48.16
2022-11-13T17:34:36.799Z,48.11
2022-11-13T17:37:41.910Z,48.07
2022-11-13T17:40:48.193Z,48.45
2022-11-13T17:43:56.803Z,48.82
2022-11-13T17:47:04.467Z,48.82
2022-11-13T17:50:09.524Z,48.88
2022-11-13T17:53:13.716Z,48.84
2022-11-13T17:56:20.191Z,48.82
2022-11-13T17:59:24.955Z,49.15
2022-11-13T18:02:29.739Z,49.28
2022-11-13T18:05:40.495Z,49.00
2022-11-13T18:08:46.219Z,49.88
2022-11-13T18:11:50.991Z,49.35
2022-11-13T18:14:55.605Z,49.25
2022-11-13T18:18:02.704Z,49.24
2022-11-13T18:21:23.018Z,50.39
2022-11-13T18:24:28.042Z,49.92
2022-11-13T18:27:32.663Z,49.70
2022-11-13T18:30:39.431Z,49.44
2022-11-13T18:33:43.820Z,49.45
2022-11-13T18:36:48.487Z,49.57
2022-11-13T18:39:53.042Z,49.71
2022-11-13T18:42:57.444Z,49.89
2022-11-13T18:46:04.942Z,49.83
2022-11-13T18:49:09.496Z,49.99
2022-11-13T18:52:13.804Z,49.95
2022-11-13T18:55:18.243Z,50.05
2022-11-13T18:58:23.047Z,50.01
2022-11-13T19:01:31.814Z,49.96
2022-11-13T19:04:36.437Z,50.44
2022-11-13T19:07:40.882Z,50.61
2022-11-13T19:10:45.315Z,50.86
2022-11-13T19:13:50.010Z,50.80
2022-11-13T19:16:55.364Z,51.17
2022-11-13T19:19:59.904Z,51.16
2022-11-13T19:23:09.044Z,50.83
2022-11-13T19:26:14.423Z,51.35
2022-11-13T19:29:19.564Z,51.67
2022-11-13T19:32:24.305Z,50.81
2022-11-13T19:35:29.086Z,51.49
2022-11-13T19:38:33.638Z,51.34
2022-11-13T19:41:38.585Z,51.26
2022-11-13T19:44:42.590Z,53.01
2022-11-13T19:47:47.008Z,51.33
2022-11-13T19:50:51.698Z,51.23
2022-11-13T19:53:58.628Z,51.70
2022-11-13T19:57:03.398Z,51.97
2022-11-13T20:00:08.704Z,51.63
2022-11-13T20:03:13.804Z,51.45
2022-11-13T20:06:18.231Z,51.54
2022-11-13T20:09:22.697Z,51.55
2022-11-13T20:12:29.588Z,51.70
2022-11-13T20:15:34.453Z,52.11
2022-11-13T20:18:39.443Z,51.63
2022-11-13T20:21:43.845Z,51.96
2022-11-13T20:24:48.470Z,52.09
2022-11-13T20:27:52.930Z,51.81
2022-11-13T20:31:06.967Z,51.87
2022-11-13T20:34:11.737Z,51.96
2022-11-13T20:37:16.110Z,52.13
2022-11-13T20:40:21.009Z,52.10
2022-11-13T20:43:25.479Z,52.19
2022-11-13T20:46:30.745Z,52.30
2022-11-13T20:49:35.049Z,52.42
2022-11-13T20:52:40.435Z,52.27
2022-11-13T20:55:45.278Z,52.31
2022-11-13T20:58:50.129Z,52.68
2022-11-13T21:01:54.978Z,52.37
2022-11-13T21:04:59.897Z,52.20
2022-11-13T21:08:04.841Z,52.48
2022-11-13T21:11:14.602Z,52.27
2022-11-13T21:14:19.291Z,52.26
2022-11-13T21:17:23.576Z,52.25
2022-11-13T21:20:29.077Z,52.15
2022-11-13T21:23:34.601Z,52.35
2022-11-13T21:26:38.984Z,52.64
2022-11-13T21:29:44.248Z,52.33
2022-11-13T21:32:48.925Z,52.70
2022-11-13T21:35:53.409Z,53.11
2022-11-13T21:38:58.066Z,53.38
2022-11-13T21:42:03.068Z,53.57
2022-11-13T21:45:08.430Z,53.20
2022-11-13T21:48:13.232Z,54.01
2022-11-13T21:51:17.942Z,53.35
2022-11-13T21:54:22.795Z,53.52
2022-11-13T21:57:27.189Z,53.89
2022-11-13T22:00:31.442Z,54.46
2022-11-13T22:03:35.826Z,55.58
2022-11-13T22:06:40.507Z,55.18
2022-11-13T22:09:45.176Z,54.58
2022-11-13T22:12:49.883Z,54.35
2022-11-13T22:15:54.575Z,53.97
2022-11-13T22:19:01.536Z,54.36
2022-11-13T22:22:06.127Z,54.31
2022-11-13T22:25:10.671Z,54.09
2022-11-13T22:28:15.513Z,54.33
2022-11-13T22:31:25.133Z,54.39
2022-11-13T22:34:29.952Z,53.61
2022-11-13T22:37:34.404Z,54.32
2022-11-13T22:40:39.024Z,54.57
2022-11-13T22:43:43.498Z,54.03
2022-11-13T22:46:48.046Z,54.55
2022-11-13T22:49:52.644Z,54.24
2022-11-13T22:52:57.323Z,54.15
2022-11-13T22:56:07.061Z,54.02
2022-11-13T22:59:12.575Z,54.46
2022-11-13T23:02:16.834Z,54.24
2022-11-13T23:05:21.129Z,54.11
2022-11-13T23:08:25.809Z,54.02
2022-11-13T23:11:38.009Z,54.43
2022-11-13T23:14:43.076Z,54.57
2022-11-13T23:17:47.753Z,54.37
2022-11-13T23:20:52.356Z,54.18
2022-11-13T23:23:56.684Z,55.11
2022-11-13T23:27:00.873Z,54.23
2022-11-13T23:30:05.727Z,53.91
2022-11-13T23:33:10.472Z,54.28
2022-11-13T23:36:18.047Z,54.56
2022-11-13T23:39:22.796Z,54.63
2022-11-13T23:42:39.631Z,54.69
2022-11-13T23:45:51.521Z,55.31
2022-11-13T23:48:56.186Z,55.14
2022-11-13T23:52:00.667Z,54.98
2022-11-13T23:55:05.844Z,55.15
2022-11-13T23:58:14.098Z,54.76
